Overview Statistics Trail Chart Weather Telemetry Raw packets
 

This is the latest recevied weather packets stored in our database for station/object IZ8GMP-13. If no packets are shown the sender has not sent any weather packets the latest 10 day(s).

<< 8 9 10 11 12 13 14 >>
Time Temp. Humidity Pressure Rain* Wind** Luminosity Snow
1788294645 28.33° C 61% 1017 hPa - - - -
1788293442 28.33° C 61% 1017.1 hPa - - - -
1788292238 28.33° C 62% 1017.2 hPa - - - -
1788291035 28.33° C 62% 1017.3 hPa - - - -
1788289831 28.33° C 62% 1017.2 hPa - - - -
1788288628 28.33° C 63% 1017 hPa - - - -
1788287424 28.33° C 62% 1016.7 hPa - - - -
1788286219 28.33° C 61% 1016.5 hPa - - - -
1788285015 28.89° C 60% 1016.2 hPa - - - -
1788283811 28.33° C 61% 1016.1 hPa - - - -
1788282607 28.33° C 60% 1016.1 hPa - - - -
1788281403 28.89° C 58% 1016.1 hPa - - - -
1788280199 29.44° C 56% 1016.1 hPa - - - -
1788278995 29.44° C 50% 1016 hPa - - - -
1788275382 31.11° C 42% 1016 hPa - - - -
1788274178 30.56° C 43% 1016.1 hPa - - - -
1788272974 30.56° C 45% 1015.9 hPa - - - -
1788271770 30.56° C 45% 1015.9 hPa - - - -
1788270566 31.11° C 45% 1015.9 hPa - - - -
1788269362 31.11° C 46% 1015.9 hPa - - - -
1788268161 31.11° C 46% 1016 hPa - - - -
1788267792 31.11° C 46% 1016 hPa - - - -
1788265385 31.11° C 47% 1016.2 hPa - - - -
1788264182 30.56° C 47% 1016.3 hPa - - - -
1788261775 30.56° C 45% 1016.1 hPa - - - -

* Rain since midnight (hover to see other rain measurements)
** Current wind speed in m/s (hover to see current wind gust speed)